Time;durP1;ratioP1;P1;durP2;ratioP2;P2;SDS_P1;SDS_P2;PMS_P1;PMS_P2;Temp;Humidity;BMP_temperature;BMP_pressure;BME280_temperature;BME280_humidity;BME280_pressure;Samples;Min_cycle;Max_cycle;Signal;HPM_P1;HPM_P2
2022/09/23 00:01:25;;;;;;;18.87;13.93;;;;;;;;;;5045645;28;20200;-67
2022/09/23 00:03:50;;;;;;;18.63;15.47;;;;;;;;;;5041251;28;20704;-67
2022/09/23 00:06:21;;;;;;;19.70;15.37;;;;;;;;;;5044940;28;20186;-68
2022/09/23 00:08:48;;;;;;;18.07;15.30;;;;;;;;;;5032491;28;20201;-68
2022/09/23 00:11:17;;;;;;;21.70;16.40;;;;;;;;;;5037287;28;20177;-67
2022/09/23 00:13:44;;;;;;;19.27;15.20;;;;;;;;;;5044329;28;20170;-67
2022/09/23 00:16:12;;;;;;;18.40;14.77;;;;;;;;;;5038908;28;20265;-67
2022/09/23 00:18:37;;;;;;;17.53;14.80;;;;;;;;;;5043321;28;20204;-68
2022/09/23 00:21:08;;;;;;;17.47;14.10;;;;;;;;;;5044295;28;20178;-67
2022/09/23 00:23:34;;;;;;;17.70;14.30;;;;;;;;;;5059210;28;20185;-67
2022/09/23 00:26:01;;;;;;;17.27;14.20;;;;;;;;;;5045467;28;20571;-68
2022/09/23 00:28:27;;;;;;;21.43;14.87;;;;;;;;;;5044504;28;20598;-67
2022/09/23 00:30:53;;;;;;;16.90;14.80;;;;;;;;;;5042418;28;20216;-67
2022/09/23 00:33:18;;;;;;;18.87;14.97;;;;;;;;;;5046497;28;20564;-67
2022/09/23 00:35:44;;;;;;;18.97;15.03;;;;;;;;;;5041517;28;20455;-68
2022/09/23 00:38:09;;;;;;;19.97;14.93;;;;;;;;;;5042657;28;20181;-67
2022/09/23 00:40:35;;;;;;;16.80;14.20;;;;;;;;;;5038057;28;20279;-67
2022/09/23 00:43:00;;;;;;;18.50;14.77;;;;;;;;;;5053025;28;20178;-67
2022/09/23 00:45:27;;;;;;;20.77;14.20;;;;;;;;;;5039803;28;20234;-67
2022/09/23 00:47:58;;;;;;;18.63;14.93;;;;;;;;;;5030380;28;20174;-67
2022/09/23 00:50:29;;;;;;;19.10;14.63;;;;;;;;;;5038401;28;20671;-68
2022/09/23 00:52:57;;;;;;;18.13;14.07;;;;;;;;;;5041302;28;20185;-68
2022/09/23 00:55:27;;;;;;;17.30;14.30;;;;;;;;;;5035386;28;20180;-68
2022/09/23 00:57:55;;;;;;;17.37;14.40;;;;;;;;;;5036036;28;20544;-68
2022/09/23 01:00:21;;;;;;;17.47;14.03;;;;;;;;;;5036534;28;20182;-67
2022/09/23 01:02:46;;;;;;;18.20;14.77;;;;;;;;;;5045208;28;20258;-67
2022/09/23 01:05:13;;;;;;;16.20;14.43;;;;;;;;;;5032763;28;20202;-67
2022/09/23 01:07:38;;;;;;;16.90;13.97;;;;;;;;;;5035074;28;20177;-68
2022/09/23 01:10:06;;;;;;;17.30;14.33;;;;;;;;;;5034556;28;20177;-68
2022/09/23 01:12:54;;;;;;;16.20;13.67;;;;;;;;;;5038005;28;20599;-68
2022/09/23 01:15:27;;;;;;;14.67;12.23;;;;;;;;;;5041907;28;20442;-68
2022/09/23 01:18:27;;;;;;;17.10;13.47;;;;;;;;;;5034929;28;20289;-68
2022/09/23 01:21:08;;;;;;;16.77;12.60;;;;;;;;;;5045752;28;20181;-68
2022/09/23 01:24:03;;;;;;;17.93;14.70;;;;;;;;;;5046794;28;20518;-68
2022/09/23 01:26:47;;;;;;;18.20;13.47;;;;;;;;;;5043182;28;20343;-68
2022/09/23 01:29:27;;;;;;;16.37;13.90;;;;;;;;;;5043125;28;20710;-68
2022/09/23 01:32:05;;;;;;;17.50;14.63;;;;;;;;;;5040611;28;20258;-68
2022/09/23 01:34:47;;;;;;;17.67;13.30;;;;;;;;;;5041236;28;20178;-68
2022/09/23 01:37:22;;;;;;;15.77;13.17;;;;;;;;;;5044331;28;20235;-68
2022/09/23 01:40:13;;;;;;;16.80;14.13;;;;;;;;;;5032990;28;20484;-68
2022/09/23 01:42:46;;;;;;;15.80;13.80;;;;;;;;;;5037190;28;20185;-67
2022/09/23 01:45:16;;;;;;;18.40;13.77;;;;;;;;;;5038787;28;20567;-67
2022/09/23 01:47:50;;;;;;;16.17;13.40;;;;;;;;;;5036731;28;20212;-67
2022/09/23 01:53:27;;;;;;;17.13;13.93;;;;;;;;;;5045132;28;20623;-68
2022/09/23 01:55:57;;;;;;;17.57;13.73;;;;;;;;;;5039536;28;20189;-68
2022/09/23 01:58:40;;;;;;;16.20;14.50;;;;;;;;;;5039746;28;20185;-68
2022/09/23 02:01:07;;;;;;;18.17;14.37;;;;;;;;;;5041992;28;20264;-68
2022/09/23 02:03:51;;;;;;;18.53;14.97;;;;;;;;;;5048086;28;20185;-67
2022/09/23 02:06:22;;;;;;;15.57;13.83;;;;;;;;;;5047118;28;20333;-67
2022/09/23 02:08:55;;;;;;;17.13;13.27;;;;;;;;;;5036766;28;20657;-67
2022/09/23 02:11:20;;;;;;;16.43;13.37;;;;;;;;;;5045034;28;20189;-67
2022/09/23 02:13:52;;;;;;;20.10;14.67;;;;;;;;;;5050152;28;20177;-68
2022/09/23 02:16:40;;;;;;;16.03;13.30;;;;;;;;;;5048318;28;20603;-68
2022/09/23 02:19:12;;;;;;;15.73;13.07;;;;;;;;;;5048653;28;20653;-68
2022/09/23 02:21:41;;;;;;;17.47;13.70;;;;;;;;;;5048728;28;20264;-68
2022/09/23 02:24:15;;;;;;;18.30;13.03;;;;;;;;;;5042013;28;20856;-68
2022/09/23 02:26:54;;;;;;;18.23;13.23;;;;;;;;;;5047673;28;20232;-67
2022/09/23 02:29:26;;;;;;;17.50;13.07;;;;;;;;;;5033532;28;20397;-68
2022/09/23 02:32:27;;;;;;;19.47;13.70;;;;;;;;;;5049019;28;20205;-67
2022/09/23 02:35:10;;;;;;;18.93;13.03;;;;;;;;;;5038036;28;20545;-67
2022/09/23 02:38:01;;;;;;;14.03;12.10;;;;;;;;;;5035250;28;20173;-68
2022/09/23 02:40:39;;;;;;;18.93;13.17;;;;;;;;;;5033057;28;20697;-67
2022/09/23 02:43:15;;;;;;;16.10;12.73;;;;;;;;;;5035171;28;20185;-67
2022/09/23 02:45:41;;;;;;;14.50;12.53;;;;;;;;;;5049472;28;20205;-67
2022/09/23 02:48:12;;;;;;;15.30;12.73;;;;;;;;;;5057101;28;20249;-67
2022/09/23 02:50:38;;;;;;;15.10;12.30;;;;;;;;;;5055204;28;20211;-68
2022/09/23 02:53:04;;;;;;;14.47;12.43;;;;;;;;;;5053721;28;20173;-67
2022/09/23 02:55:31;;;;;;;14.77;12.83;;;;;;;;;;5046592;28;20182;-68
2022/09/23 02:57:59;;;;;;;14.13;12.53;;;;;;;;;;5042829;28;20181;-67
2022/09/23 03:00:52;;;;;;;13.57;12.10;;;;;;;;;;5043093;28;20641;-67
2022/09/23 03:03:39;;;;;;;16.03;12.40;;;;;;;;;;5030842;28;20193;-67
2022/09/23 03:06:21;;;;;;;16.67;12.47;;;;;;;;;;5043250;28;20729;-67
2022/09/23 03:08:54;;;;;;;15.00;12.20;;;;;;;;;;5040670;28;20185;-67
2022/09/23 03:11:20;;;;;;;15.23;12.20;;;;;;;;;;5042582;28;20196;-67
2022/09/23 03:14:26;;;;;;;15.93;11.73;;;;;;;;;;5040861;28;20178;-67
2022/09/23 03:17:00;;;;;;;16.10;12.07;;;;;;;;;;5044075;28;20626;-67
2022/09/23 03:19:25;;;;;;;17.20;12.17;;;;;;;;;;5062006;28;20180;-67
2022/09/23 03:22:12;;;;;;;14.17;11.40;;;;;;;;;;5045144;28;20193;-68
2022/09/23 03:24:43;;;;;;;15.03;12.37;;;;;;;;;;5049256;28;20239;-69
2022/09/23 03:27:16;;;;;;;14.00;11.47;;;;;;;;;;5048226;28;20241;-67
2022/09/23 03:29:48;;;;;;;12.77;11.37;;;;;;;;;;5046961;28;20196;-70
2022/09/23 03:32:16;;;;;;;16.00;12.07;;;;;;;;;;5041894;28;20209;-69
2022/09/23 03:34:44;;;;;;;15.40;11.93;;;;;;;;;;5048423;28;20268;-69
2022/09/23 03:37:35;;;;;;;15.03;11.57;;;;;;;;;;5041828;28;20177;-69
2022/09/23 03:40:25;;;;;;;15.57;12.00;;;;;;;;;;5034860;28;20193;-69
2022/09/23 03:42:52;;;;;;;15.10;11.67;;;;;;;;;;5047597;28;20185;-69
2022/09/23 03:45:25;;;;;;;12.20;10.60;;;;;;;;;;5032425;28;20191;-69
2022/09/23 03:47:50;;;;;;;17.33;11.97;;;;;;;;;;5039000;28;20638;-69
2022/09/23 03:50:16;;;;;;;12.97;11.57;;;;;;;;;;5038540;28;20189;-69
2022/09/23 03:52:42;;;;;;;13.80;11.90;;;;;;;;;;5044818;28;20182;-68
2022/09/23 03:55:08;;;;;;;13.97;11.27;;;;;;;;;;5047588;28;20660;-69
2022/09/23 03:57:33;;;;;;;16.87;11.43;;;;;;;;;;5050496;28;20199;-69
2022/09/23 03:59:59;;;;;;;12.70;10.70;;;;;;;;;;5046433;28;20182;-69
2022/09/23 04:02:25;;;;;;;14.23;11.60;;;;;;;;;;5046975;28;20193;-70
2022/09/23 04:04:50;;;;;;;15.33;10.93;;;;;;;;;;5045848;28;20206;-69
2022/09/23 04:07:16;;;;;;;15.40;11.00;;;;;;;;;;5047855;28;20597;-70
2022/09/23 04:09:42;;;;;;;17.40;10.97;;;;;;;;;;5044515;28;20344;-69
2022/09/23 04:12:12;;;;;;;15.43;11.90;;;;;;;;;;5047832;28;20189;-69
2022/09/23 04:14:37;;;;;;;12.03;10.60;;;;;;;;;;5048737;28;20200;-69
2022/09/23 04:17:03;;;;;;;15.00;11.10;;;;;;;;;;5047452;28;20540;-69
2022/09/23 04:19:28;;;;;;;14.00;10.93;;;;;;;;;;5044654;28;20186;-69
2022/09/23 04:21:54;;;;;;;12.97;10.83;;;;;;;;;;5038605;28;20264;-69
2022/09/23 04:24:19;;;;;;;17.57;11.63;;;;;;;;;;5046795;28;20344;-69
2022/09/23 04:26:45;;;;;;;16.43;11.77;;;;;;;;;;5032685;28;20741;-69
2022/09/23 04:29:10;;;;;;;17.37;11.60;;;;;;;;;;5036463;28;20185;-69
2022/09/23 04:31:36;;;;;;;14.87;11.10;;;;;;;;;;5035789;28;20363;-69
2022/09/23 04:34:02;;;;;;;13.37;10.40;;;;;;;;;;5049011;28;20708;-70
2022/09/23 04:36:29;;;;;;;13.40;11.03;;;;;;;;;;5032901;28;20177;-69
2022/09/23 04:38:55;;;;;;;16.87;11.67;;;;;;;;;;5047908;28;20223;-69
2022/09/23 04:41:20;;;;;;;16.03;11.00;;;;;;;;;;5043088;28;20177;-69
2022/09/23 04:43:46;;;;;;;13.47;11.10;;;;;;;;;;5042443;28;20200;-69
2022/09/23 04:46:13;;;;;;;16.57;11.63;;;;;;;;;;5047111;28;20272;-69
2022/09/23 04:48:40;;;;;;;14.43;11.13;;;;;;;;;;5044226;28;20178;-69
2022/09/23 04:51:14;;;;;;;14.60;10.97;;;;;;;;;;5041408;28;20521;-70
2022/09/23 04:53:42;;;;;;;13.93;10.63;;;;;;;;;;5052939;28;20260;-69
2022/09/23 04:56:19;;;;;;;15.77;11.07;;;;;;;;;;5037605;28;20185;-67
2022/09/23 04:58:45;;;;;;;15.13;11.30;;;;;;;;;;5047610;28;20192;-69
2022/09/23 05:01:25;;;;;;;14.00;11.07;;;;;;;;;;5046232;28;20188;-69
2022/09/23 05:03:53;;;;;;;17.07;11.00;;;;;;;;;;5033834;28;20259;-70
2022/09/23 05:06:19;;;;;;;14.60;11.60;;;;;;;;;;5057904;28;20192;-69
2022/09/23 05:08:53;;;;;;;17.63;11.27;;;;;;;;;;5046427;28;20184;-69
2022/09/23 05:11:19;;;;;;;15.40;11.67;;;;;;;;;;5039742;28;20293;-69
2022/09/23 05:13:49;;;;;;;17.43;11.50;;;;;;;;;;5039662;28;20634;-69
2022/09/23 05:16:15;;;;;;;13.73;11.07;;;;;;;;;;5038568;28;20211;-68
2022/09/23 05:18:42;;;;;;;15.90;10.63;;;;;;;;;;5034513;28;20193;-67
2022/09/23 05:21:29;;;;;;;18.37;10.93;;;;;;;;;;5041735;28;20281;-69
2022/09/23 05:23:57;;;;;;;17.67;10.87;;;;;;;;;;5039573;28;20233;-68
2022/09/23 05:26:24;;;;;;;16.40;11.10;;;;;;;;;;5035553;28;20237;-69
2022/09/23 05:28:50;;;;;;;14.70;10.70;;;;;;;;;;5042252;28;20581;-68
2022/09/23 05:31:18;;;;;;;16.30;11.60;;;;;;;;;;5037766;28;20247;-67
2022/09/23 05:33:52;;;;;;;17.23;11.43;;;;;;;;;;5035289;28;20177;-69
2022/09/23 05:36:19;;;;;;;19.00;10.90;;;;;;;;;;5037500;28;20281;-67
2022/09/23 05:38:44;;;;;;;15.53;12.03;;;;;;;;;;5031484;28;20571;-68
2022/09/23 05:41:12;;;;;;;18.90;12.00;;;;;;;;;;5037990;28;20220;-69
2022/09/23 05:43:37;;;;;;;19.20;11.40;;;;;;;;;;5048470;28;20189;-69
2022/09/23 05:46:09;;;;;;;16.43;12.13;;;;;;;;;;5042133;28;20267;-67
2022/09/23 05:48:35;;;;;;;17.60;11.77;;;;;;;;;;5034974;28;20659;-67
2022/09/23 05:51:02;;;;;;;23.63;12.23;;;;;;;;;;5033980;28;20283;-67
2022/09/23 05:53:28;;;;;;;20.60;13.30;;;;;;;;;;5043648;28;20637;-67
2022/09/23 05:55:54;;;;;;;17.10;12.67;;;;;;;;;;5046759;28;20205;-67
2022/09/23 05:58:20;;;;;;;21.97;13.83;;;;;;;;;;5052048;28;20196;-68
2022/09/23 06:00:47;;;;;;;18.23;13.80;;;;;;;;;;5054418;28;20192;-67
2022/09/23 06:03:14;;;;;;;17.67;12.87;;;;;;;;;;5041518;28;20173;-67
2022/09/23 06:05:39;;;;;;;17.10;12.30;;;;;;;;;;5037299;28;20327;-70
2022/09/23 06:08:06;;;;;;;14.53;11.80;;;;;;;;;;5043770;28;20277;-67
2022/09/23 06:10:36;;;;;;;17.57;12.10;;;;;;;;;;5041562;28;20196;-68
2022/09/23 06:13:02;;;;;;;21.53;12.80;;;;;;;;;;5032913;28;20330;-70
2022/09/23 06:15:27;;;;;;;16.53;11.77;;;;;;;;;;5045762;28;20264;-70
2022/09/23 06:17:52;;;;;;;18.67;12.07;;;;;;;;;;5045498;28;20189;-70
2022/09/23 06:20:18;;;;;;;17.80;12.33;;;;;;;;;;5040118;28;20316;-70
2022/09/23 06:22:43;;;;;;;15.80;10.77;;;;;;;;;;5040876;28;20258;-70
2022/09/23 06:25:08;;;;;;;20.40;11.70;;;;;;;;;;5032142;28;20749;-69
2022/09/23 06:27:34;;;;;;;17.97;10.77;;;;;;;;;;5045263;28;20232;-69
2022/09/23 06:29:59;;;;;;;17.37;10.50;;;;;;;;;;5028074;28;20201;-69
2022/09/23 06:32:24;;;;;;;13.80;9.37;;;;;;;;;;5026492;28;20197;-69
2022/09/23 06:34:50;;;;;;;14.05;9.63;;;;;;;;;;5041616;28;20320;-70
2022/09/23 06:37:16;;;;;;;15.17;9.20;;;;;;;;;;5036155;28;20182;-69
2022/09/23 06:39:41;;;;;;;13.40;8.93;;;;;;;;;;5037382;28;20208;-70
2022/09/23 06:42:07;;;;;;;15.45;8.95;;;;;;;;;;5040726;28;20273;-69
2022/09/23 06:44:32;;;;;;;14.75;9.40;;;;;;;;;;5035434;28;20194;-69
2022/09/23 06:46:57;;;;;;;16.05;9.00;;;;;;;;;;5031589;28;20636;-69
2022/09/23 06:49:22;;;;;;;17.05;8.90;;;;;;;;;;5036744;28;20598;-70
2022/09/23 06:51:48;;;;;;;15.82;9.13;;;;;;;;;;5039792;28;20257;-70
2022/09/23 06:54:13;;;;;;;14.13;8.32;;;;;;;;;;5038942;28;20172;-70
2022/09/23 06:56:39;;;;;;;13.70;8.93;;;;;;;;;;5035215;28;20193;-68
2022/09/23 06:59:05;;;;;;;15.43;8.90;;;;;;;;;;5035926;28;20489;-68
2022/09/23 07:01:31;;;;;;;13.02;8.15;;;;;;;;;;5035969;28;20689;-68
2022/09/23 07:03:56;;;;;;;13.20;8.93;;;;;;;;;;5032391;28;20237;-67
2022/09/23 07:06:21;;;;;;;14.93;8.48;;;;;;;;;;5037025;28;20193;-68
2022/09/23 07:08:47;;;;;;;11.23;8.63;;;;;;;;;;5037422;28;20178;-70
2022/09/23 07:11:13;;;;;;;14.25;8.07;;;;;;;;;;5034496;28;20178;-68
2022/09/23 07:13:41;;;;;;;10.07;7.93;;;;;;;;;;5036931;28;20277;-68
2022/09/23 07:16:07;;;;;;;11.77;8.13;;;;;;;;;;5034462;28;20214;-68
2022/09/23 07:18:35;;;;;;;12.05;7.80;;;;;;;;;;5035564;28;20180;-67
2022/09/23 07:21:17;;;;;;;17.67;7.85;;;;;;;;;;5034859;28;20277;-67
2022/09/23 07:23:48;;;;;;;8.80;6.72;;;;;;;;;;5036090;28;20714;-68
2022/09/23 07:26:15;;;;;;;12.85;7.18;;;;;;;;;;5036336;28;20735;-68
2022/09/23 07:28:41;;;;;;;10.43;7.32;;;;;;;;;;5033220;28;20186;-68
2022/09/23 07:31:12;;;;;;;13.05;7.88;;;;;;;;;;5039786;28;20188;-68
2022/09/23 07:33:38;;;;;;;14.95;7.80;;;;;;;;;;5044148;28;20343;-70
2022/09/23 07:36:09;;;;;;;11.18;7.00;;;;;;;;;;5032027;28;20217;-68
2022/09/23 07:38:35;;;;;;;12.35;6.78;;;;;;;;;;5033463;28;20885;-69
2022/09/23 07:41:04;;;;;;;12.25;6.97;;;;;;;;;;5031331;28;20178;-68
2022/09/23 07:43:33;;;;;;;9.75;6.18;;;;;;;;;;5030259;28;20212;-68
2022/09/23 07:46:01;;;;;;;10.95;6.93;;;;;;;;;;5028067;28;20273;-67
2022/09/23 07:48:28;;;;;;;11.75;6.93;;;;;;;;;;5031056;28;20193;-69
2022/09/23 07:50:54;;;;;;;11.75;6.63;;;;;;;;;;5030068;28;20224;-68
2022/09/23 07:53:19;;;;;;;11.63;7.13;;;;;;;;;;5036827;28;20190;-68
2022/09/23 07:55:53;;;;;;;8.75;6.28;;;;;;;;;;5043870;28;20188;-68
2022/09/23 07:58:19;;;;;;;10.18;7.25;;;;;;;;;;5033372;28;20205;-68
2022/09/23 08:00:44;;;;;;;12.23;6.20;;;;;;;;;;5041307;28;20178;-69
2022/09/23 08:03:10;;;;;;;11.82;7.03;;;;;;;;;;5034123;28;20175;-68
2022/09/23 08:05:35;;;;;;;9.43;6.53;;;;;;;;;;5030262;28;20209;-68
2022/09/23 08:08:01;;;;;;;8.57;5.78;;;;;;;;;;5041233;28;20185;-68
2022/09/23 08:10:26;;;;;;;9.38;6.03;;;;;;;;;;5035841;28;20213;-67
2022/09/23 08:12:52;;;;;;;12.48;6.22;;;;;;;;;;5032157;28;20268;-68
2022/09/23 08:15:17;;;;;;;10.27;5.95;;;;;;;;;;5031696;28;20162;-68
2022/09/23 08:17:43;;;;;;;9.60;6.05;;;;;;;;;;5039727;28;20184;-69
2022/09/23 08:20:42;;;;;;;10.80;6.10;;;;;;;;;;5038231;28;20272;-69
2022/09/23 08:22:55;;;;;;;9.38;5.75;;;;;;;;;;5034334;28;20263;-67
2022/09/23 08:25:21;;;;;;;10.60;6.30;;;;;;;;;;5043880;28;20658;-68
2022/09/23 08:27:46;;;;;;;9.43;6.30;;;;;;;;;;5038930;28;20251;-68
2022/09/23 08:30:11;;;;;;;13.85;5.93;;;;;;;;;;5043432;28;20271;-67
2022/09/23 08:32:37;;;;;;;11.57;5.72;;;;;;;;;;5037198;28;20209;-67
2022/09/23 08:35:02;;;;;;;6.82;5.65;;;;;;;;;;5036867;28;20177;-66
2022/09/23 08:37:28;;;;;;;9.82;5.60;;;;;;;;;;5030518;28;20293;-66
2022/09/23 08:39:53;;;;;;;9.93;6.10;;;;;;;;;;5045931;28;20178;-67
2022/09/23 08:42:28;;;;;;;8.77;5.35;;;;;;;;;;5039337;28;20178;-67
2022/09/23 08:44:58;;;;;;;10.23;5.82;;;;;;;;;;5040388;28;20304;-67
2022/09/23 08:47:31;;;;;;;6.97;5.25;;;;;;;;;;5032901;28;20184;-67
2022/09/23 08:50:05;;;;;;;9.82;6.43;;;;;;;;;;5036145;28;20185;-66
2022/09/23 08:53:03;;;;;;;8.18;6.00;;;;;;;;;;5045591;28;20181;-68
2022/09/23 08:55:33;;;;;;;12.10;5.80;;;;;;;;;;5032611;28;20627;-68
2022/09/23 08:58:23;;;;;;;8.32;6.15;;;;;;;;;;5030043;28;20470;-68
2022/09/23 09:01:16;;;;;;;10.50;5.32;;;;;;;;;;5029031;28;20645;-67
2022/09/23 09:03:47;;;;;;;8.00;5.72;;;;;;;;;;5026740;28;20201;-67
2022/09/23 09:06:29;;;;;;;9.93;5.90;;;;;;;;;;5038978;28;20207;-67
2022/09/23 09:08:57;;;;;;;11.57;6.35;;;;;;;;;;5038035;28;20657;-68
2022/09/23 09:11:34;;;;;;;10.10;6.05;;;;;;;;;;5054363;28;20177;-68
2022/09/23 09:14:16;;;;;;;8.57;5.65;;;;;;;;;;5033685;28;20216;-68
2022/09/23 09:17:00;;;;;;;10.95;5.50;;;;;;;;;;5034574;28;20204;-67
2022/09/23 09:19:51;;;;;;;11.32;5.65;;;;;;;;;;5043899;28;20174;-68
2022/09/23 09:22:40;;;;;;;7.53;5.85;;;;;;;;;;5043631;28;20184;-68
2022/09/23 09:25:20;;;;;;;10.45;6.10;;;;;;;;;;5039294;28;20197;-68
2022/09/23 09:27:46;;;;;;;9.65;5.10;;;;;;;;;;5033485;28;20250;-68
2022/09/23 09:30:13;;;;;;;11.85;6.15;;;;;;;;;;5025862;28;20186;-68
2022/09/23 09:32:47;;;;;;;11.07;6.20;;;;;;;;;;5026406;28;21710;-68
2022/09/23 09:35:28;;;;;;;7.93;6.13;;;;;;;;;;5030850;28;20281;-68
2022/09/23 09:37:54;;;;;;;11.32;6.40;;;;;;;;;;5033777;28;20257;-68
2022/09/23 09:40:20;;;;;;;12.93;6.05;;;;;;;;;;5029941;28;20177;-69
2022/09/23 09:42:48;;;;;;;9.70;6.20;;;;;;;;;;5035606;28;20239;-68
2022/09/23 09:45:20;;;;;;;8.13;5.43;;;;;;;;;;5029242;28;20201;-69
2022/09/23 09:48:16;;;;;;;8.23;4.90;;;;;;;;;;5028348;28;20281;-68
2022/09/23 09:50:46;;;;;;;10.65;5.38;;;;;;;;;;5030315;28;20181;-69
2022/09/23 09:53:28;;;;;;;6.97;5.45;;;;;;;;;;5047123;28;20192;-69
2022/09/23 09:56:05;;;;;;;9.07;5.40;;;;;;;;;;5046715;28;20673;-69
2022/09/23 09:58:45;;;;;;;12.30;5.70;;;;;;;;;;5039211;28;20189;-69
2022/09/23 10:01:21;;;;;;;9.23;5.25;;;;;;;;;;5046221;28;20177;-69
2022/09/23 10:03:49;;;;;;;9.23;5.22;;;;;;;;;;5049718;28;20250;-68
2022/09/23 10:06:24;;;;;;;6.07;4.72;;;;;;;;;;5047201;28;20304;-68
2022/09/23 10:09:17;;;;;;;9.38;5.30;;;;;;;;;;5037417;28;20181;-68
2022/09/23 10:12:02;;;;;;;7.03;5.38;;;;;;;;;;5044646;28;20697;-69
2022/09/23 10:14:29;;;;;;;10.75;5.40;;;;;;;;;;5051111;28;20226;-68
2022/09/23 10:17:04;;;;;;;8.45;5.30;;;;;;;;;;5039482;28;20645;-68
2022/09/23 10:19:30;;;;;;;10.60;5.85;;;;;;;;;;5027076;28;20186;-68
2022/09/23 10:21:59;;;;;;;8.32;5.20;;;;;;;;;;5040870;28;20177;-69
2022/09/23 10:24:29;;;;;;;9.35;5.60;;;;;;;;;;5031974;28;20204;-69
2022/09/23 10:27:12;;;;;;;9.43;5.93;;;;;;;;;;5036808;28;20275;-68
2022/09/23 10:29:47;;;;;;;8.80;5.28;;;;;;;;;;5035563;28;20694;-69
2022/09/23 10:32:48;;;;;;;11.73;5.85;;;;;;;;;;5033053;28;20658;-67
2022/09/23 10:35:19;;;;;;;9.77;5.43;;;;;;;;;;5042078;28;20545;-68
2022/09/23 10:37:56;;;;;;;11.52;6.13;;;;;;;;;;5035630;28;20185;-68
2022/09/23 10:46:44;;;;;;;7.95;5.47;;;;;;;;;;5043023;28;20200;-68
2022/09/23 10:49:49;;;;;;;11.50;5.40;;;;;;;;;;5040476;28;20194;-67
2022/09/23 10:52:34;;;;;;;7.38;5.15;;;;;;;;;;5050229;28;20535;-67
2022/09/23 10:55:42;;;;;;;9.43;5.40;;;;;;;;;;5045163;28;20471;-69
2022/09/23 10:58:46;;;;;;;7.78;4.95;;;;;;;;;;5047624;28;20568;-70
2022/09/23 11:01:38;;;;;;;7.50;5.43;;;;;;;;;;5043538;28;20624;-69
2022/09/23 11:04:12;;;;;;;9.02;5.10;;;;;;;;;;5042545;28;20192;-68
2022/09/23 11:07:17;;;;;;;7.95;5.50;;;;;;;;;;5044431;28;20569;-68
2022/09/23 11:10:07;;;;;;;8.48;5.65;;;;;;;;;;5034576;28;20723;-68
2022/09/23 11:13:01;;;;;;;7.97;5.40;;;;;;;;;;5048867;28;20192;-68
2022/09/23 11:15:53;;;;;;;10.80;5.45;;;;;;;;;;5043266;28;20199;-67
2022/09/23 11:18:45;;;;;;;10.32;5.55;;;;;;;;;;5043877;28;20260;-67
2022/09/23 11:21:30;;;;;;;8.02;5.63;;;;;;;;;;5047337;28;20205;-69
2022/09/23 11:24:21;;;;;;;11.40;5.85;;;;;;;;;;5045038;28;20224;-68
2022/09/23 11:27:17;;;;;;;7.95;5.60;;;;;;;;;;5042934;28;20235;-68
2022/09/23 11:29:49;;;;;;;11.18;5.75;;;;;;;;;;5046482;28;20234;-68
2022/09/23 11:32:49;;;;;;;7.28;5.22;;;;;;;;;;5049583;28;20300;-68
2022/09/23 11:35:43;;;;;;;8.85;5.45;;;;;;;;;;5047753;28;20203;-67
2022/09/23 11:38:25;;;;;;;9.18;5.32;;;;;;;;;;5044618;28;20204;-68
2022/09/23 11:40:55;;;;;;;7.22;5.28;;;;;;;;;;5044907;28;20177;-68
2022/09/23 11:43:24;;;;;;;8.25;5.10;;;;;;;;;;5042319;28;20173;-69
2022/09/23 11:46:08;;;;;;;8.10;5.50;;;;;;;;;;5053569;28;20209;-67
2022/09/23 11:48:40;;;;;;;11.23;5.05;;;;;;;;;;5046598;28;20261;-69
2022/09/23 11:51:25;;;;;;;7.78;4.97;;;;;;;;;;5048714;28;20179;-68
2022/09/23 11:54:03;;;;;;;9.02;4.82;;;;;;;;;;5054406;28;20184;-67
2022/09/23 11:56:43;;;;;;;8.90;5.82;;;;;;;;;;5045009;28;20525;-67
2022/09/23 11:59:27;;;;;;;8.32;5.05;;;;;;;;;;5044137;28;20181;-67
2022/09/23 12:01:59;;;;;;;6.85;5.22;;;;;;;;;;5033690;28;20182;-69
2022/09/23 12:04:33;;;;;;;9.10;5.50;;;;;;;;;;5037980;28;20276;-69
2022/09/23 12:07:07;;;;;;;11.35;5.85;;;;;;;;;;5045866;28;20220;-66
2022/09/23 12:09:51;;;;;;;6.80;4.85;;;;;;;;;;5036286;28;20247;-69
2022/09/23 12:12:50;;;;;;;8.88;5.15;;;;;;;;;;5041065;28;20178;-69
2022/09/23 12:15:38;;;;;;;9.55;5.50;;;;;;;;;;5040715;28;20177;-68
2022/09/23 12:18:21;;;;;;;8.27;5.30;;;;;;;;;;5043896;28;20271;-67
2022/09/23 12:21:19;;;;;;;8.00;5.25;;;;;;;;;;5045347;28;20276;-68
2022/09/23 12:24:02;;;;;;;8.05;5.45;;;;;;;;;;5032331;28;20174;-68
2022/09/23 12:26:28;;;;;;;10.30;5.10;;;;;;;;;;5026911;28;20218;-68
2022/09/23 12:29:00;;;;;;;6.80;5.28;;;;;;;;;;5028231;28;20170;-69
2022/09/23 12:31:29;;;;;;;9.13;5.68;;;;;;;;;;5025796;28;20336;-68
2022/09/23 12:33:59;;;;;;;9.90;6.00;;;;;;;;;;5028170;28;20186;-67
2022/09/23 12:36:29;;;;;;;9.02;5.78;;;;;;;;;;5026443;28;20272;-67
2022/09/23 12:39:05;;;;;;;9.02;5.80;;;;;;;;;;5027986;28;20265;-68
2022/09/23 12:41:38;;;;;;;8.07;5.57;;;;;;;;;;5027911;28;20181;-68
2022/09/23 12:44:22;;;;;;;9.50;6.10;;;;;;;;;;5032217;28;20228;-68
2022/09/23 12:47:13;;;;;;;9.55;5.55;;;;;;;;;;5027873;28;20192;-68
2022/09/23 12:49:40;;;;;;;12.35;6.22;;;;;;;;;;5028955;28;20193;-68
2022/09/23 12:52:15;;;;;;;9.02;5.85;;;;;;;;;;5039858;28;20602;-69
2022/09/23 12:54:45;;;;;;;9.43;6.00;;;;;;;;;;5060465;28;20185;-69
2022/09/23 12:57:13;;;;;;;9.32;5.50;;;;;;;;;;5033685;28;20193;-69
2022/09/23 12:59:50;;;;;;;10.38;6.15;;;;;;;;;;5042907;28;20268;-69
2022/09/23 13:02:30;;;;;;;7.28;5.00;;;;;;;;;;5053282;28;20664;-69
2022/09/23 13:07:46;;;;;;;7.63;4.93;;;;;;;;;;5046723;28;20207;-68
2022/09/23 13:10:24;;;;;;;6.40;4.70;;;;;;;;;;5054294;28;20212;-69
2022/09/23 13:12:51;;;;;;;9.25;5.47;;;;;;;;;;5050739;28;20540;-68
2022/09/23 13:15:31;;;;;;;8.98;5.28;;;;;;;;;;5065187;28;20173;-68
2022/09/23 13:18:21;;;;;;;7.63;5.35;;;;;;;;;;5039559;28;20195;-68
2022/09/23 13:20:51;;;;;;;9.13;5.57;;;;;;;;;;5053010;28;20184;-68
2022/09/23 13:23:25;;;;;;;10.68;5.43;;;;;;;;;;5052160;28;20174;-68
2022/09/23 13:25:54;;;;;;;7.07;5.65;;;;;;;;;;5046419;28;20617;-69
2022/09/23 13:28:24;;;;;;;8.63;5.70;;;;;;;;;;5039874;28;20232;-69
2022/09/23 13:30:51;;;;;;;7.72;5.15;;;;;;;;;;5042745;28;20704;-68
2022/09/23 13:33:29;;;;;;;7.45;4.80;;;;;;;;;;5030165;28;20304;-68
2022/09/23 13:36:00;;;;;;;11.15;5.03;;;;;;;;;;5033555;28;20602;-69
2022/09/23 13:38:28;;;;;;;6.30;5.13;;;;;;;;;;5042641;28;20269;-67
2022/09/23 13:41:06;;;;;;;13.10;5.35;;;;;;;;;;5043395;28;20189;-69
2022/09/23 13:43:38;;;;;;;6.65;4.75;;;;;;;;;;5040456;28;20182;-69
2022/09/23 13:46:12;;;;;;;8.68;5.00;;;;;;;;;;5044192;28;20300;-69
2022/09/23 13:48:39;;;;;;;4.78;4.03;;;;;;;;;;5043214;28;20229;-68
2022/09/23 13:51:08;;;;;;;8.68;5.20;;;;;;;;;;5046156;28;20661;-68
2022/09/23 13:53:34;;;;;;;8.95;4.63;;;;;;;;;;5049723;28;20177;-69
2022/09/23 13:56:21;;;;;;;8.38;4.40;;;;;;;;;;5041770;28;20542;-68
2022/09/23 13:58:47;;;;;;;5.72;4.13;;;;;;;;;;5043273;28;20189;-69
2022/09/23 14:01:30;;;;;;;7.63;4.90;;;;;;;;;;5045757;28;20609;-69
2022/09/23 14:03:55;;;;;;;9.57;4.95;;;;;;;;;;5043651;28;20227;-69
2022/09/23 14:06:20;;;;;;;6.75;4.40;;;;;;;;;;5045349;28;20177;-69
2022/09/23 14:08:48;;;;;;;7.05;4.95;;;;;;;;;;5046439;28;20363;-68
2022/09/23 14:11:27;;;;;;;6.85;4.85;;;;;;;;;;5047171;28;20185;-69
2022/09/23 14:13:54;;;;;;;7.50;4.30;;;;;;;;;;5043181;28;20188;-68
2022/09/23 14:16:20;;;;;;;8.93;4.40;;;;;;;;;;5040731;28;20178;-68
2022/09/23 14:18:48;;;;;;;7.43;4.88;;;;;;;;;;5047277;28;20212;-68
2022/09/23 14:21:28;;;;;;;6.60;5.00;;;;;;;;;;5046163;28;20181;-67
2022/09/23 14:23:53;;;;;;;8.07;5.13;;;;;;;;;;5036737;28;20185;-68
2022/09/23 14:26:19;;;;;;;8.35;4.70;;;;;;;;;;5034317;28;20297;-69
2022/09/23 14:28:46;;;;;;;8.60;4.85;;;;;;;;;;5034424;28;20277;-68
2022/09/23 14:31:11;;;;;;;8.35;5.03;;;;;;;;;;5041172;28;20596;-68
2022/09/23 14:33:40;;;;;;;8.98;4.50;;;;;;;;;;5031560;28;20188;-68
2022/09/23 14:38:49;;;;;;;5.57;4.40;;;;;;;;;;5032531;28;20181;-68
2022/09/23 14:39:07;;;;;;;5.53;4.68;;;;;;;;;;5031145;28;20174;-67
2022/09/23 14:41:37;;;;;;;9.75;4.50;;;;;;;;;;5033225;28;20644;-67
2022/09/23 14:44:04;;;;;;;8.55;4.47;;;;;;;;;;5039993;28;20181;-67
2022/09/23 14:46:33;;;;;;;7.53;4.88;;;;;;;;;;5042329;28;20272;-65
2022/09/23 14:49:05;;;;;;;7.23;5.60;;;;;;;;;;5037970;28;20429;-67
2022/09/23 14:51:43;;;;;;;7.20;4.47;;;;;;;;;;5036528;28;20444;-68
2022/09/23 14:54:29;;;;;;;7.30;4.80;;;;;;;;;;5028511;28;20201;-68
2022/09/23 14:56:55;;;;;;;7.32;4.72;;;;;;;;;;5032141;28;20205;-68
2022/09/23 14:59:34;;;;;;;8.15;4.65;;;;;;;;;;5039642;28;20189;-68
2022/09/23 15:02:00;;;;;;;8.07;5.03;;;;;;;;;;5035117;28;20377;-67
2022/09/23 15:04:29;;;;;;;8.50;4.75;;;;;;;;;;5039301;28;20198;-67
2022/09/23 15:07:15;;;;;;;6.70;4.15;;;;;;;;;;5024520;28;20181;-69
2022/09/23 15:09:41;;;;;;;6.95;3.97;;;;;;;;;;5020053;28;20182;-68
2022/09/23 15:12:12;;;;;;;9.23;4.07;;;;;;;;;;5023610;28;20221;-67
2022/09/23 15:14:40;;;;;;;10.07;4.55;;;;;;;;;;5025805;28;20633;-68